createdAt,value
2022-07-28T00:00:52.484Z,98473.00
2022-07-28T00:03:19.292Z,98469.28
2022-07-28T00:05:47.121Z,98467.16
2022-07-28T00:08:16.681Z,98477.34
2022-07-28T00:10:43.370Z,98477.09
2022-07-28T00:13:13.324Z,98480.63
2022-07-28T00:15:40.280Z,98480.63
2022-07-28T00:18:06.993Z,98481.72
2022-07-28T00:20:33.703Z,98478.53
2022-07-28T00:23:00.369Z,98478.25
2022-07-28T00:25:28.266Z,98479.59
2022-07-28T00:27:54.946Z,98471.34
2022-07-28T00:30:21.737Z,98478.59
2022-07-28T00:32:48.481Z,98476.97
2022-07-28T00:35:15.680Z,98479.09
2022-07-28T00:37:42.423Z,98479.94
2022-07-28T00:40:10.126Z,98477.53
2022-07-28T00:42:37.173Z,98476.69
2022-07-28T00:45:04.624Z,98480.19
2022-07-28T00:47:33.708Z,98476.69
2022-07-28T00:50:02.490Z,98471.06
2022-07-28T00:52:29.858Z,98467.59
2022-07-28T00:54:58.784Z,98466.25
2022-07-28T00:57:25.488Z,98467.59
2022-07-28T00:59:52.140Z,98459.28
2022-07-28T01:02:19.260Z,98461.69
2022-07-28T01:04:46.689Z,98467.03
2022-07-28T01:07:23.534Z,98464.91
2022-07-28T01:09:59.096Z,98465.72
2022-07-28T01:12:30.686Z,98461.97
2022-07-28T01:15:28.768Z,98457.69
2022-07-28T01:18:07.084Z,98459.28
2022-07-28T01:20:52.567Z,98455.78
2022-07-28T01:23:54.350Z,98449.38
2022-07-28T01:26:51.652Z,98457.97
2022-07-28T01:29:47.944Z,98456.09
2022-07-28T01:32:20.919Z,98448.56
2022-07-28T01:34:56.111Z,98447.75
2022-07-28T01:37:29.123Z,98450.72
2022-07-28T01:40:01.423Z,98448.31
2022-07-28T01:42:33.473Z,98448.81
2022-07-28T01:45:01.732Z,98450.72
2022-07-28T01:47:30.092Z,98448.81
2022-07-28T01:50:00.859Z,98442.41
2022-07-28T01:52:30.214Z,98435.19
2022-07-28T01:54:59.147Z,98439.19
2022-07-28T01:57:27.720Z,98431.16
2022-07-28T01:59:56.302Z,98436.78
2022-07-28T02:02:23.619Z,98430.63
2022-07-28T02:04:52.394Z,98428.47
2022-07-28T02:07:21.192Z,98428.75
2022-07-28T02:09:48.395Z,98427.69
2022-07-28T02:12:18.507Z,98428.50
2022-07-28T02:14:48.978Z,98419.66
2022-07-28T02:17:26.667Z,98430.63
2022-07-28T02:19:55.147Z,98419.13
2022-07-28T02:22:21.841Z,98409.47
2022-07-28T02:24:48.671Z,98410.31
2022-07-28T02:27:22.416Z,98401.72
2022-07-28T02:30:03.225Z,98404.13
2022-07-28T02:32:50.306Z,98397.47
2022-07-28T02:35:19.626Z,98396.13
2022-07-28T02:37:54.220Z,98397.19
2022-07-28T02:40:23.511Z,98396.13
2022-07-28T02:42:51.877Z,98391.84
2022-07-28T02:45:22.107Z,98403.59
2022-07-28T02:47:52.628Z,98392.38
2022-07-28T02:50:23.166Z,98402.53
2022-07-28T02:52:51.754Z,98410.28
2022-07-28T02:55:18.967Z,98407.59
2022-07-28T02:57:46.913Z,98408.69
2022-07-28T03:00:14.569Z,98417.25
2022-07-28T03:02:46.749Z,98411.09
2022-07-28T03:05:15.635Z,98427.16
2022-07-28T03:07:51.130Z,98413.22
2022-07-28T03:10:34.267Z,98426.34
2022-07-28T03:13:03.776Z,98422.31
2022-07-28T03:15:31.209Z,98429.25
2022-07-28T03:17:58.754Z,98428.69
2022-07-28T03:20:25.520Z,98430.28
2022-07-28T03:22:52.277Z,98430.28
2022-07-28T03:25:26.608Z,98432.38
2022-07-28T03:27:56.066Z,98437.69
2022-07-28T03:30:32.172Z,98443.03
2022-07-28T03:33:00.439Z,98441.16
2022-07-28T03:35:28.664Z,98445.19
2022-07-28T03:37:59.221Z,98449.47
2022-07-28T03:40:29.687Z,98450.50
2022-07-28T03:42:57.560Z,98450.78
2022-07-28T03:45:24.759Z,98459.59
2022-07-28T03:47:54.216Z,98455.88
2022-07-28T03:50:23.924Z,98466.78
2022-07-28T03:52:51.315Z,98470.59
2022-07-28T03:55:18.753Z,98458.78
2022-07-28T03:57:46.200Z,98464.97
2022-07-28T04:00:14.888Z,98462.56
2022-07-28T04:02:43.867Z,98456.69
2022-07-28T04:05:13.965Z,98459.09
2022-07-28T04:07:41.793Z,98452.69
2022-07-28T04:10:11.287Z,98453.50
2022-07-28T04:12:55.443Z,98440.91
2022-07-28T04:15:28.013Z,98445.47
2022-07-28T04:17:55.764Z,98444.69
2022-07-28T04:20:24.324Z,98447.34
2022-07-28T04:22:51.670Z,98455.09
2022-07-28T04:25:20.785Z,98444.16
2022-07-28T04:27:48.256Z,98447.88
2022-07-28T04:30:17.903Z,98443.59
2022-07-28T04:32:47.499Z,98447.34
2022-07-28T04:35:17.469Z,98440.66
2022-07-28T04:37:46.107Z,98444.13
2022-07-28T04:40:13.837Z,98436.94
2022-07-28T04:42:41.421Z,98446.25
2022-07-28T04:45:11.681Z,98438.78
2022-07-28T04:47:38.977Z,98443.63
2022-07-28T04:50:07.491Z,98443.94
2022-07-28T04:52:34.198Z,98447.69
2022-07-28T04:55:01.162Z,98446.91
2022-07-28T04:57:29.982Z,98449.31
2022-07-28T04:59:58.302Z,98443.44
2022-07-28T05:02:25.093Z,98448.81
2022-07-28T05:04:52.173Z,98450.94
2022-07-28T05:07:18.939Z,98452.28
2022-07-28T05:09:45.746Z,98449.63
2022-07-28T05:12:12.539Z,98454.72
2022-07-28T05:14:39.754Z,98463.03
2022-07-28T05:17:06.862Z,98454.19
2022-07-28T05:19:35.760Z,98459.28
2022-07-28T05:22:02.406Z,98454.22
2022-07-28T05:24:29.214Z,98454.47
2022-07-28T05:26:55.898Z,98456.88
2022-07-28T05:29:22.834Z,98453.66
2022-07-28T05:31:49.551Z,98455.53
2022-07-28T05:34:16.650Z,98453.94
2022-07-28T05:36:44.085Z,98451.22
2022-07-28T05:39:10.791Z,98461.44
2022-07-28T05:41:37.615Z,98463.03
2022-07-28T05:44:04.367Z,98455.53
2022-07-28T05:46:31.096Z,98455.00
2022-07-28T05:48:57.910Z,98454.19
2022-07-28T05:51:24.671Z,98453.63
2022-07-28T05:53:51.939Z,98456.31
2022-07-28T05:56:18.580Z,98466.22
2022-07-28T05:58:45.204Z,98471.56
2022-07-28T06:01:11.881Z,98471.81
2022-07-28T06:03:42.374Z,98469.13
2022-07-28T06:06:16.067Z,98467.78
2022-07-28T06:08:44.404Z,98464.81
2022-07-28T06:11:11.811Z,98468.28
2022-07-28T06:13:46.346Z,98472.28
2022-07-28T06:16:13.482Z,98467.97
2022-07-28T06:18:40.327Z,98463.94
2022-07-28T06:21:06.981Z,98464.69
2022-07-28T06:23:33.933Z,98470.88
2022-07-28T06:26:00.805Z,98465.72
2022-07-28T06:28:27.564Z,98475.91
2022-07-28T06:30:54.283Z,98465.44
2022-07-28T06:33:21.041Z,98460.00
2022-07-28T06:35:51.072Z,98468.00
2022-07-28T06:38:20.572Z,98469.53
2022-07-28T06:40:48.322Z,98468.75
2022-07-28T06:43:15.084Z,98472.41
2022-07-28T06:45:41.868Z,98466.19
2022-07-28T06:48:08.872Z,98467.47
2022-07-28T06:50:39.384Z,98465.31
2022-07-28T06:53:06.468Z,98458.84
2022-07-28T06:55:35.416Z,98458.84
2022-07-28T06:58:03.732Z,98459.94
2022-07-28T07:00:31.278Z,98451.63
2022-07-28T07:02:58.100Z,98445.63
2022-07-28T07:05:25.883Z,98450.38
2022-07-28T07:07:52.783Z,98446.28
2022-07-28T07:10:19.486Z,98449.72
2022-07-28T07:12:46.291Z,98438.41
2022-07-28T07:15:13.065Z,98440.19
2022-07-28T07:17:39.889Z,98442.16
2022-07-28T07:20:07.139Z,98440.53
2022-07-28T07:22:33.988Z,98431.97
2022-07-28T07:25:10.660Z,98426.31
2022-07-28T07:27:37.771Z,98414.34
2022-07-28T07:30:06.214Z,98414.69
2022-07-28T07:32:33.211Z,98413.03
2022-07-28T07:35:00.012Z,98411.41
2022-07-28T07:37:27.629Z,98415.91
2022-07-28T07:39:54.621Z,98415.78
2022-07-28T07:42:21.314Z,98416.22
2022-07-28T07:44:51.538Z,98414.50
2022-07-28T07:47:18.695Z,98409.31
2022-07-28T07:49:46.508Z,98404.66
2022-07-28T07:52:14.507Z,98398.97
2022-07-28T07:54:41.675Z,98400.72
2022-07-28T07:57:08.606Z,98393.84
2022-07-28T07:59:35.640Z,98388.75
2022-07-28T08:02:02.609Z,98387.31
2022-07-28T08:04:29.616Z,98389.94
2022-07-28T08:06:56.483Z,98388.69
2022-07-28T08:09:23.297Z,98381.84
2022-07-28T08:11:50.010Z,98386.06
2022-07-28T08:14:17.629Z,98388.50
2022-07-28T08:16:47.926Z,98394.53
2022-07-28T08:19:14.593Z,98394.25
2022-07-28T08:21:41.299Z,98385.47
2022-07-28T08:24:08.863Z,98380.66
2022-07-28T08:26:36.297Z,98385.25
2022-07-28T08:29:03.166Z,98380.84
2022-07-28T08:31:29.924Z,98379.16
2022-07-28T08:34:03.401Z,98380.06
2022-07-28T08:36:32.080Z,98375.31
2022-07-28T08:38:58.787Z,98373.59
2022-07-28T08:41:33.424Z,98371.50
2022-07-28T08:44:04.139Z,98375.88
2022-07-28T08:46:38.646Z,98371.16
2022-07-28T08:49:08.878Z,98369.06
2022-07-28T08:51:37.740Z,98365.06
2022-07-28T08:54:06.091Z,98365.63
2022-07-28T08:56:33.098Z,98369.44
2022-07-28T08:59:01.006Z,98364.94
2022-07-28T09:01:38.650Z,98372.00
2022-07-28T09:04:08.744Z,98368.66
2022-07-28T09:06:41.959Z,98361.38
2022-07-28T09:09:11.038Z,98370.38
2022-07-28T09:11:38.070Z,98362.16
2022-07-28T09:14:05.942Z,98362.03
2022-07-28T09:16:33.051Z,98361.50
2022-07-28T09:18:59.882Z,98357.44
2022-07-28T09:21:26.844Z,98355.56
2022-07-28T09:23:53.613Z,98352.34
2022-07-28T09:26:20.398Z,98347.13
2022-07-28T09:28:48.564Z,98345.41
2022-07-28T09:31:17.020Z,98337.47
2022-07-28T09:34:01.160Z,98333.81
2022-07-28T09:36:32.532Z,98339.63
2022-07-28T09:38:59.398Z,98345.78
2022-07-28T09:41:26.178Z,98343.91
2022-07-28T09:43:55.786Z,98338.19
2022-07-28T09:46:25.564Z,98340.97
2022-07-28T09:48:56.199Z,98336.03
2022-07-28T09:51:27.339Z,98330.63
2022-07-28T09:54:08.259Z,98332.31
2022-07-28T09:56:35.794Z,98328.34
2022-07-28T09:59:03.751Z,98323.91
2022-07-28T10:01:35.803Z,98317.22
2022-07-28T10:04:04.241Z,98314.69
2022-07-28T10:06:33.701Z,98311.50
2022-07-28T10:09:02.664Z,98308.97
2022-07-28T10:11:32.009Z,98297.81
2022-07-28T10:14:03.131Z,98295.28
2022-07-28T10:16:34.217Z,98296.22
2022-07-28T10:19:03.360Z,98292.84
2022-07-28T10:21:33.576Z,98293.38
2022-07-28T10:24:05.708Z,98290.50
2022-07-28T10:26:48.476Z,98284.88
2022-07-28T10:29:20.506Z,98278.81
2022-07-28T10:31:51.883Z,98278.50
2022-07-28T10:34:25.521Z,98275.47
2022-07-28T10:36:55.748Z,98278.81
2022-07-28T10:39:29.130Z,98273.22
2022-07-28T10:41:56.555Z,98270.59
2022-07-28T10:44:24.497Z,98271.28
2022-07-28T10:46:52.470Z,98267.28
2022-07-28T10:49:20.897Z,98264.94
2022-07-28T10:52:02.429Z,98263.50
2022-07-28T10:54:47.291Z,98260.03
2022-07-28T10:57:16.378Z,98263.66
2022-07-28T11:00:12.222Z,98251.53
2022-07-28T11:02:52.393Z,98246.84
2022-07-28T11:05:42.631Z,98248.56
2022-07-28T11:08:29.113Z,98249.63
2022-07-28T11:11:07.411Z,98248.34
2022-07-28T11:13:40.998Z,98252.09
2022-07-28T11:16:28.230Z,98243.13
2022-07-28T11:19:07.561Z,98238.91
2022-07-28T11:21:39.818Z,98237.91
2022-07-28T11:24:07.854Z,98235.88
2022-07-28T11:26:36.327Z,98233.56
2022-07-28T11:29:04.036Z,98237.34
2022-07-28T11:31:46.006Z,98237.41
2022-07-28T11:34:15.122Z,98234.09
2022-07-28T11:36:58.359Z,98232.53
2022-07-28T11:39:27.271Z,98234.72
2022-07-28T11:41:54.159Z,98228.50
2022-07-28T11:44:30.472Z,98220.34
2022-07-28T11:47:20.821Z,98229.94
2022-07-28T11:50:11.970Z,98225.00
2022-07-28T11:52:39.731Z,98219.22
2022-07-28T11:55:06.638Z,98224.31
2022-07-28T11:57:41.301Z,98217.75
2022-07-28T12:00:08.778Z,98219.91
2022-07-28T12:02:36.229Z,98224.03
2022-07-28T12:05:06.899Z,98213.81
2022-07-28T12:07:37.402Z,98210.75
2022-07-28T12:10:52.249Z,98216.59
2022-07-28T12:13:13.841Z,98212.97
2022-07-28T12:15:40.713Z,98207.88
2022-07-28T12:18:11.964Z,98201.09
2022-07-28T12:20:48.727Z,98202.00
2022-07-28T12:23:15.747Z,98203.34
2022-07-28T12:25:45.133Z,98193.38
2022-07-28T12:28:21.689Z,98194.53
2022-07-28T12:30:49.571Z,98195.66
2022-07-28T12:33:27.467Z,98189.97
2022-07-28T12:35:58.841Z,98182.41
2022-07-28T12:38:27.447Z,98188.84
2022-07-28T12:40:54.288Z,98189.19
2022-07-28T12:43:22.923Z,98183.81
2022-07-28T12:45:49.856Z,98185.91
2022-07-28T12:48:18.831Z,98181.47
2022-07-28T12:50:46.127Z,98181.59
2022-07-28T12:53:13.307Z,98169.00
2022-07-28T12:55:44.003Z,98175.00
2022-07-28T12:58:27.419Z,98169.31
2022-07-28T13:00:55.343Z,98165.00
2022-07-28T13:03:26.658Z,98171.34
2022-07-28T13:06:10.263Z,98165.66
2022-07-28T13:08:44.131Z,98159.63
2022-07-28T13:11:42.083Z,98160.53
2022-07-28T13:14:00.698Z,98156.31
2022-07-28T13:16:28.701Z,98151.88
2022-07-28T13:18:58.530Z,98151.00
2022-07-28T13:21:56.593Z,98151.78
2022-07-28T13:24:26.218Z,98147.25
2022-07-28T13:26:52.968Z,98147.19
2022-07-28T13:29:19.814Z,98148.56
2022-07-28T13:31:46.812Z,98143.44
2022-07-28T13:34:14.025Z,98142.69
2022-07-28T13:36:41.808Z,98136.66
2022-07-28T13:39:10.885Z,98141.97
2022-07-28T13:41:57.865Z,98137.38
2022-07-28T13:44:25.362Z,98129.91
2022-07-28T13:46:52.315Z,98127.38
2022-07-28T13:49:21.268Z,98126.59
2022-07-28T13:51:49.051Z,98130.56
2022-07-28T13:54:19.022Z,98130.63
2022-07-28T13:57:02.518Z,98126.03
2022-07-28T13:59:29.393Z,98123.41
2022-07-28T14:01:56.282Z,98119.06
2022-07-28T14:04:23.425Z,98127.19
2022-07-28T14:06:50.572Z,98107.09
2022-07-28T14:09:18.414Z,98119.31
2022-07-28T14:11:50.153Z,98115.47
2022-07-28T14:14:23.832Z,98116.25
2022-07-28T14:16:54.514Z,98110.66
2022-07-28T14:19:39.043Z,98115.13
2022-07-28T14:22:12.806Z,98115.88
2022-07-28T14:24:41.746Z,98116.34
2022-07-28T14:27:08.601Z,98121.59
2022-07-28T14:29:37.744Z,98110.81
2022-07-28T14:32:04.707Z,98116.19
2022-07-28T14:34:31.422Z,98111.56
2022-07-28T14:37:01.205Z,98116.50
2022-07-28T14:39:32.384Z,98118.69
2022-07-28T14:41:59.031Z,98108.25
2022-07-28T14:44:26.701Z,98110.97
2022-07-28T14:46:53.610Z,98112.56
2022-07-28T14:49:20.394Z,98106.34
2022-07-28T14:51:47.187Z,98107.44
2022-07-28T14:54:14.428Z,98110.84
2022-07-28T14:56:41.265Z,98107.00
2022-07-28T14:59:07.921Z,98101.56
2022-07-28T15:01:36.536Z,98103.22
2022-07-28T15:04:04.240Z,98103.81
2022-07-28T15:06:31.119Z,98095.84
2022-07-28T15:08:58.482Z,98096.13
2022-07-28T15:11:25.737Z,98094.75
2022-07-28T15:13:52.502Z,98091.38
2022-07-28T15:16:19.281Z,98088.53
2022-07-28T15:18:46.121Z,98077.78
2022-07-28T15:21:16.463Z,98075.06
2022-07-28T15:23:44.144Z,98088.78
2022-07-28T15:26:11.273Z,98071.91
2022-07-28T15:28:39.605Z,98081.22
2022-07-28T15:31:08.495Z,98079.63
2022-07-28T15:33:47.689Z,98077.78
2022-07-28T15:36:15.664Z,98079.81
2022-07-28T15:38:47.478Z,98073.94
2022-07-28T15:41:19.880Z,98077.88
2022-07-28T15:43:47.005Z,98069.91
2022-07-28T15:46:14.352Z,98071.34
2022-07-28T15:48:42.886Z,98065.66
2022-07-28T15:51:09.898Z,98062.88
2022-07-28T15:53:37.196Z,98060.81
2022-07-28T15:56:04.762Z,98059.84
2022-07-28T15:58:31.822Z,98058.38
2022-07-28T16:00:59.376Z,98057.13
2022-07-28T16:03:29.771Z,98052.16
2022-07-28T16:05:57.162Z,98051.53
2022-07-28T16:08:23.910Z,98052.03
2022-07-28T16:10:54.375Z,98051.00
2022-07-28T16:13:28.644Z,98052.25
2022-07-28T16:16:05.955Z,98056.31
2022-07-28T16:18:37.247Z,98046.47
2022-07-28T16:21:04.587Z,98042.69
2022-07-28T16:23:31.515Z,98045.13
2022-07-28T16:25:58.535Z,98040.56
2022-07-28T16:28:25.188Z,98039.19
2022-07-28T16:30:51.945Z,98041.91
2022-07-28T16:33:18.786Z,98035.66
2022-07-28T16:35:45.678Z,98034.94
2022-07-28T16:38:12.827Z,98031.69
2022-07-28T16:40:40.798Z,98033.44
2022-07-28T16:43:07.676Z,98039.56
2022-07-28T16:45:35.378Z,98035.25
2022-07-28T16:48:04.350Z,98037.19
2022-07-28T16:50:32.590Z,98035.97
2022-07-28T16:53:00.785Z,98035.81
2022-07-28T16:55:27.439Z,98040.47
2022-07-28T16:57:55.270Z,98043.34
2022-07-28T17:00:23.859Z,98037.13
2022-07-28T17:02:50.535Z,98039.94
2022-07-28T17:05:17.606Z,98040.38
2022-07-28T17:07:45.775Z,98034.22
2022-07-28T17:10:14.928Z,98030.44
2022-07-28T17:12:49.799Z,98032.16
2022-07-28T17:15:22.809Z,98038.28
2022-07-28T17:17:52.489Z,98031.50
2022-07-28T17:20:19.350Z,98036.41
2022-07-28T17:22:46.081Z,98046.25
2022-07-28T17:25:43.637Z,98038.66
2022-07-28T17:27:59.852Z,98048.97
2022-07-28T17:30:29.931Z,98051.34
2022-07-28T17:32:58.958Z,98053.75
2022-07-28T17:35:34.551Z,98056.94
2022-07-28T17:38:03.619Z,98061.66
2022-07-28T17:40:30.402Z,98061.88
2022-07-28T17:42:57.049Z,98065.97
2022-07-28T17:45:24.434Z,98067.53
2022-07-28T17:47:51.597Z,98073.22
2022-07-28T17:50:18.452Z,98063.91
2022-07-28T17:52:45.752Z,98065.59
2022-07-28T17:55:28.325Z,98054.31
2022-07-28T17:57:57.717Z,98060.09
2022-07-28T18:00:24.688Z,98059.06
2022-07-28T18:02:51.445Z,98065.94
2022-07-28T18:05:18.356Z,98069.56
2022-07-28T18:07:51.116Z,98073.19
2022-07-28T18:10:24.736Z,98078.06
2022-07-28T18:12:52.056Z,98078.97
2022-07-28T18:15:19.018Z,98082.47
2022-07-28T18:17:55.270Z,98073.41
2022-07-28T18:20:23.223Z,98082.09
2022-07-28T18:22:50.594Z,98087.19
2022-07-28T18:25:17.381Z,98084.56
2022-07-28T18:27:44.181Z,98077.28
2022-07-28T18:30:11.425Z,98072.41
2022-07-28T18:32:38.075Z,98068.97
2022-07-28T18:35:05.074Z,98073.97
2022-07-28T18:37:31.744Z,98085.34
2022-07-28T18:39:58.374Z,98079.59
2022-07-28T18:42:25.029Z,98072.91
2022-07-28T18:44:51.718Z,98077.22
2022-07-28T18:47:19.229Z,98084.09
2022-07-28T18:49:45.879Z,98085.56
2022-07-28T18:52:12.622Z,98089.25
2022-07-28T18:54:39.278Z,98092.97
2022-07-28T18:57:05.918Z,98092.84
2022-07-28T18:59:32.769Z,98111.59
2022-07-28T19:01:59.679Z,98103.75
2022-07-28T19:04:26.449Z,98105.53
2022-07-28T19:06:53.202Z,98104.94
2022-07-28T19:09:19.920Z,98105.63
2022-07-28T19:11:46.944Z,98114.25
2022-07-28T19:14:15.666Z,98114.13
2022-07-28T19:16:43.227Z,98111.25
2022-07-28T19:19:10.178Z,98114.63
2022-07-28T19:21:36.840Z,98114.81
2022-07-28T19:24:04.188Z,98114.81
2022-07-28T19:26:30.917Z,98123.63
2022-07-28T19:28:57.905Z,98121.88
2022-07-28T19:31:25.548Z,98117.28
2022-07-28T19:33:52.682Z,98121.88
2022-07-28T19:36:20.147Z,98125.59
2022-07-28T19:38:46.811Z,98127.38
2022-07-28T19:41:13.572Z,98127.06
2022-07-28T19:43:40.337Z,98127.72
2022-07-28T19:46:07.365Z,98133.47
2022-07-28T19:48:34.326Z,98131.41
2022-07-28T19:51:01.049Z,98130.16
2022-07-28T19:53:32.074Z,98134.63
2022-07-28T19:56:01.283Z,98145.31
2022-07-28T19:58:28.489Z,98144.84
2022-07-28T20:00:56.416Z,98149.00
2022-07-28T20:04:01.980Z,98151.88
2022-07-28T20:06:10.277Z,98156.19
2022-07-28T20:08:37.026Z,98150.31
2022-07-28T20:11:03.676Z,98146.66
2022-07-28T20:13:30.426Z,98150.47
2022-07-28T20:15:57.091Z,98147.16
2022-07-28T20:18:23.722Z,98147.16
2022-07-28T20:20:53.876Z,98143.47
2022-07-28T20:23:20.658Z,98136.69
2022-07-28T20:25:47.336Z,98136.69
2022-07-28T20:28:14.073Z,98142.09
2022-07-28T20:30:40.968Z,98139.56
2022-07-28T20:33:08.333Z,98148.00
2022-07-28T20:35:35.159Z,98141.31
2022-07-28T20:38:03.374Z,98143.53
2022-07-28T20:40:30.035Z,98149.59
2022-07-28T20:42:56.722Z,98148.81
2022-07-28T20:45:23.882Z,98154.38
2022-07-28T20:47:50.594Z,98151.97
2022-07-28T20:50:17.653Z,98146.44
2022-07-28T20:52:44.420Z,98141.81
2022-07-28T20:55:11.476Z,98148.97
2022-07-28T20:57:38.573Z,98146.44
2022-07-28T21:00:07.422Z,98142.78
2022-07-28T21:02:34.540Z,98139.59
2022-07-28T21:05:01.290Z,98139.91
2022-07-28T21:08:00.825Z,98140.22
2022-07-28T21:10:14.927Z,98138.97
2022-07-28T21:12:41.671Z,98134.66
2022-07-28T21:15:09.806Z,98137.97
2022-07-28T21:17:36.882Z,98131.78
2022-07-28T21:20:05.481Z,98134.31
2022-07-28T21:22:32.216Z,98138.13
2022-07-28T21:24:59.208Z,98139.25
2022-07-28T21:27:25.897Z,98140.69
2022-07-28T21:32:18.540Z,98142.59
2022-07-28T21:34:45.583Z,98139.72
2022-07-28T21:37:13.115Z,98145.78
2022-07-28T21:39:40.552Z,98147.38
2022-07-28T21:42:08.808Z,98139.59
2022-07-28T21:44:37.203Z,98148.63
2022-07-28T21:47:04.404Z,98149.75
2022-07-28T21:49:32.295Z,98155.78
2022-07-28T21:51:59.401Z,98158.81
2022-07-28T21:54:26.411Z,98161.34
2022-07-28T21:56:53.084Z,98164.38
2022-07-28T21:59:19.885Z,98158.47
2022-07-28T22:01:46.845Z,98161.19
2022-07-28T22:04:13.970Z,98161.81
2022-07-28T22:06:41.075Z,98163.59
2022-07-28T22:09:13.063Z,98178.03
2022-07-28T22:11:39.696Z,98178.38
2022-07-28T22:14:06.366Z,98176.13
2022-07-28T22:16:33.227Z,98171.03
2022-07-28T22:18:59.984Z,98182.50
2022-07-28T22:21:26.711Z,98185.50
2022-07-28T22:23:53.398Z,98189.97
2022-07-28T22:26:20.111Z,98187.09
2022-07-28T22:28:46.875Z,98191.53
2022-07-28T22:31:13.819Z,98190.25
2022-07-28T22:33:40.785Z,98197.72
2022-07-28T22:36:08.863Z,98196.44
2022-07-28T22:38:36.184Z,98192.44
2022-07-28T22:41:03.520Z,98199.28
2022-07-28T22:43:33.049Z,98194.50
2022-07-28T22:45:59.805Z,98190.78
2022-07-28T22:48:26.550Z,98197.81
2022-07-28T22:50:53.233Z,98198.41
2022-07-28T22:53:19.913Z,98202.53
2022-07-28T22:55:46.583Z,98211.56
2022-07-28T22:58:13.238Z,98209.81
2022-07-28T23:00:40.052Z,98214.44
2022-07-28T23:03:07.241Z,98219.97
2022-07-28T23:05:36.758Z,98218.50
2022-07-28T23:08:03.521Z,98223.53
2022-07-28T23:10:30.555Z,98223.81
2022-07-28T23:12:58.882Z,98231.84
2022-07-28T23:15:40.657Z,98228.09
2022-07-28T23:18:10.706Z,98232.63
2022-07-28T23:20:39.105Z,98230.56
2022-07-28T23:23:06.001Z,98226.75
2022-07-28T23:25:33.046Z,98220.88
2022-07-28T23:28:00.580Z,98224.69
2022-07-28T23:30:27.292Z,98221.25
2022-07-28T23:32:54.725Z,98226.50
2022-07-28T23:35:21.362Z,98221.22
2022-07-28T23:37:48.073Z,98227.03
2022-07-28T23:40:14.958Z,98232.09
2022-07-28T23:42:41.859Z,98228.81
2022-07-28T23:45:09.210Z,98238.31
2022-07-28T23:47:36.020Z,98255.06
2022-07-28T23:50:04.995Z,98248.19
2022-07-28T23:52:31.674Z,98245.59
2022-07-28T23:54:58.841Z,98255.66
2022-07-28T23:57:25.476Z,98256.25
2022-07-28T23:59:57.947Z,98257.47
